createdAt,value
2022-11-18T00:00:39.500Z,98632.22
2022-11-18T00:03:08.979Z,98641.50
2022-11-18T00:05:41.023Z,98630.47
2022-11-18T00:08:10.496Z,98618.00
2022-11-18T00:10:40.773Z,98620.44
2022-11-18T00:13:25.870Z,98629.19
2022-11-18T00:16:03.127Z,98626.25
2022-11-18T00:18:32.641Z,98628.66
2022-11-18T00:21:06.818Z,98639.59
2022-11-18T00:23:36.375Z,98636.72
2022-11-18T00:26:06.171Z,98643.84
2022-11-18T00:28:35.768Z,98647.38
2022-11-18T00:31:05.867Z,98645.53
2022-11-18T00:33:36.929Z,98647.16
2022-11-18T00:36:09.061Z,98655.78
2022-11-18T00:38:38.509Z,98654.19
2022-11-18T00:41:09.090Z,98653.13
2022-11-18T00:43:36.040Z,98639.22
2022-11-18T00:46:05.720Z,98649.25
2022-11-18T00:48:35.181Z,98644.53
2022-11-18T00:51:12.740Z,98640.00
2022-11-18T00:53:42.201Z,98646.13
2022-11-18T00:56:11.892Z,98643.22
2022-11-18T00:58:41.403Z,98651.47
2022-11-18T01:01:11.217Z,98657.31
2022-11-18T01:03:40.742Z,98652.03
2022-11-18T01:06:12.899Z,98652.03
2022-11-18T01:08:42.372Z,98665.13
2022-11-18T01:11:32.983Z,98666.00
2022-11-18T01:14:02.432Z,98662.03
2022-11-18T01:16:32.156Z,98667.94
2022-11-18T01:19:01.608Z,98674.38
2022-11-18T01:21:33.956Z,98676.94
2022-11-18T01:24:03.433Z,98673.66
2022-11-18T01:26:32.853Z,98675.81
2022-11-18T01:29:02.317Z,98679.22
2022-11-18T01:31:31.784Z,98682.91
2022-11-18T01:34:01.215Z,98688.28
2022-11-18T01:36:30.672Z,98689.81
2022-11-18T01:39:03.079Z,98691.63
2022-11-18T01:41:32.535Z,98694.63
2022-11-18T01:44:02.644Z,98684.53
2022-11-18T01:46:32.974Z,98672.13
2022-11-18T01:49:03.569Z,98681.47
2022-11-18T01:51:35.186Z,98677.56
2022-11-18T01:54:09.213Z,98680.09
2022-11-18T01:56:40.696Z,98682.56
2022-11-18T01:59:11.960Z,98688.56
2022-11-18T02:01:41.542Z,98688.06
2022-11-18T02:04:11.015Z,98690.25
2022-11-18T02:06:40.522Z,98700.88
2022-11-18T02:09:12.572Z,98695.56
2022-11-18T02:11:54.737Z,98704.38
2022-11-18T02:14:25.115Z,98710.22
2022-11-18T02:17:07.067Z,98703.53
2022-11-18T02:20:13.394Z,98709.19
2022-11-18T02:23:07.598Z,98706.09
2022-11-18T02:25:43.765Z,98704.81
2022-11-18T02:28:41.936Z,98709.16
2022-11-18T02:31:17.625Z,98718.25
2022-11-18T02:33:52.371Z,98714.09
2022-11-18T02:36:23.235Z,98713.91
2022-11-18T02:38:54.908Z,98717.00
2022-11-18T02:41:26.344Z,98713.59
2022-11-18T02:43:56.649Z,98714.22
2022-11-18T02:46:33.124Z,98715.47
2022-11-18T02:49:03.509Z,98710.25
2022-11-18T02:51:33.052Z,98716.41
2022-11-18T02:54:03.936Z,98715.41
2022-11-18T02:56:33.396Z,98710.13
2022-11-18T02:59:02.840Z,98716.91
2022-11-18T03:01:36.463Z,98716.91
2022-11-18T03:04:06.648Z,98708.97
2022-11-18T03:06:38.064Z,98707.63
2022-11-18T03:09:12.514Z,98715.47
2022-11-18T03:11:45.398Z,98717.88
2022-11-18T03:14:22.005Z,98721.53
2022-11-18T03:16:59.492Z,98722.66
2022-11-18T03:19:34.389Z,98724.53
2022-11-18T03:22:08.784Z,98726.56
2022-11-18T03:24:38.206Z,98723.38
2022-11-18T03:27:12.032Z,98720.78
2022-11-18T03:29:42.432Z,98727.44
2022-11-18T03:32:16.834Z,98738.81
2022-11-18T03:34:47.856Z,98736.50
2022-11-18T03:37:17.804Z,98744.44
2022-11-18T03:39:49.139Z,98753.81
2022-11-18T03:42:19.774Z,98748.53
2022-11-18T03:44:53.928Z,98754.16
2022-11-18T03:47:27.924Z,98755.09
2022-11-18T03:49:59.943Z,98763.81
2022-11-18T03:52:30.774Z,98761.25
2022-11-18T03:55:00.599Z,98771.38
2022-11-18T03:57:34.214Z,98774.94
2022-11-18T04:00:06.443Z,98774.09
2022-11-18T04:02:38.489Z,98778.91
2022-11-18T04:05:09.753Z,98778.13
2022-11-18T04:07:41.269Z,98767.78
2022-11-18T04:10:13.365Z,98776.03
2022-11-18T04:12:45.286Z,98771.78
2022-11-18T04:15:14.744Z,98781.81
2022-11-18T04:17:46.827Z,98781.50
2022-11-18T04:20:17.017Z,98780.44
2022-11-18T04:22:46.459Z,98779.63
2022-11-18T04:25:15.941Z,98784.38
2022-11-18T04:27:45.408Z,98788.28
2022-11-18T04:30:16.059Z,98780.81
2022-11-18T04:32:48.165Z,98790.81
2022-11-18T04:35:17.793Z,98784.72
2022-11-18T04:37:47.252Z,98782.00
2022-11-18T04:40:16.670Z,98788.31
2022-11-18T04:42:46.144Z,98787.19
2022-11-18T04:45:15.592Z,98798.16
2022-11-18T04:47:45.084Z,98797.63
2022-11-18T04:50:17.110Z,98799.03
2022-11-18T04:52:46.563Z,98806.94
2022-11-18T04:55:16.013Z,98815.13
2022-11-18T04:57:45.447Z,98818.56
2022-11-18T05:00:15.622Z,98817.25
2022-11-18T05:02:45.056Z,98821.06
2022-11-18T05:05:17.124Z,98825.50
2022-11-18T05:07:46.776Z,98823.78
2022-11-18T05:10:16.303Z,98821.13
2022-11-18T05:12:49.238Z,98830.44
2022-11-18T05:15:18.956Z,98828.25
2022-11-18T05:17:48.507Z,98820.09
2022-11-18T05:20:20.936Z,98837.00
2022-11-18T05:22:50.374Z,98833.66
2022-11-18T05:25:19.848Z,98847.53
2022-11-18T05:27:49.275Z,98839.16
2022-11-18T05:30:18.818Z,98845.91
2022-11-18T05:32:48.313Z,98850.88
2022-11-18T05:35:20.356Z,98854.28
2022-11-18T05:37:49.796Z,98852.47
2022-11-18T05:40:20.171Z,98837.78
2022-11-18T05:43:02.108Z,98855.06
2022-11-18T05:45:31.512Z,98859.41
2022-11-18T05:48:04.652Z,98861.00
2022-11-18T05:50:37.906Z,98866.84
2022-11-18T05:53:08.261Z,98864.59
2022-11-18T05:55:39.444Z,98864.78
2022-11-18T05:58:08.620Z,98863.75
2022-11-18T06:00:38.043Z,98873.50
2022-11-18T06:03:07.626Z,98872.03
2022-11-18T06:05:39.709Z,98872.03
2022-11-18T06:08:09.149Z,98883.16
2022-11-18T06:10:38.784Z,98885.56
2022-11-18T06:13:09.088Z,98888.06
2022-11-18T06:15:40.058Z,98892.66
2022-11-18T06:18:10.468Z,98905.25
2022-11-18T06:20:42.642Z,98911.63
2022-11-18T06:23:12.144Z,98908.44
2022-11-18T06:25:41.703Z,98915.66
2022-11-18T06:28:11.665Z,98917.50
2022-11-18T06:30:41.129Z,98916.72
2022-11-18T06:33:10.874Z,98920.72
2022-11-18T06:35:42.995Z,98923.50
2022-11-18T06:38:12.431Z,98924.16
2022-11-18T06:40:44.741Z,98928.50
2022-11-18T06:43:26.943Z,98932.47
2022-11-18T06:46:09.509Z,98931.97
2022-11-18T06:48:39.091Z,98930.38
2022-11-18T06:51:11.122Z,98931.31
2022-11-18T06:53:40.627Z,98941.88
2022-11-18T06:56:10.968Z,98953.34
2022-11-18T06:58:40.422Z,98951.28
2022-11-18T07:01:13.949Z,98962.09
2022-11-18T07:03:43.574Z,98953.56
2022-11-18T07:06:16.401Z,98959.44
2022-11-18T07:08:45.915Z,98970.13
2022-11-18T07:11:22.231Z,98969.63
2022-11-18T07:13:51.681Z,98964.94
2022-11-18T07:16:21.948Z,98971.84
2022-11-18T07:18:53.972Z,98972.41
2022-11-18T07:21:26.648Z,98983.06
2022-11-18T07:23:56.127Z,98986.88
2022-11-18T07:26:25.750Z,98988.03
2022-11-18T07:28:55.184Z,98985.38
2022-11-18T07:31:24.603Z,98983.19
2022-11-18T07:33:54.751Z,98999.28
2022-11-18T07:36:32.362Z,99003.28
2022-11-18T07:39:04.988Z,99002.38
2022-11-18T07:41:34.447Z,99012.94
2022-11-18T07:44:04.607Z,99009.06
2022-11-18T07:46:34.962Z,99019.41
2022-11-18T07:49:05.476Z,99024.69
2022-11-18T07:51:38.239Z,99028.84
2022-11-18T07:54:11.144Z,99032.50
2022-11-18T07:56:40.681Z,99025.81
2022-11-18T07:59:10.189Z,99035.94
2022-11-18T08:01:39.735Z,99048.47
2022-11-18T08:04:10.114Z,99052.50
2022-11-18T08:06:42.390Z,99063.41
2022-11-18T08:09:11.988Z,99064.78
2022-11-18T08:11:41.439Z,99063.41
2022-11-18T08:14:10.923Z,99073.97
2022-11-18T08:16:40.373Z,99072.16
2022-11-18T08:19:09.780Z,99075.38
2022-11-18T08:21:41.829Z,99079.75
2022-11-18T08:24:12.340Z,99077.91
2022-11-18T08:26:41.760Z,99086.50
2022-11-18T08:29:11.432Z,99092.97
2022-11-18T08:31:40.863Z,99092.44
2022-11-18T08:34:10.384Z,99092.56
2022-11-18T08:36:42.648Z,99090.66
2022-11-18T08:39:14.955Z,99088.31
2022-11-18T08:41:46.838Z,99088.22
2022-11-18T08:44:17.711Z,99086.53
2022-11-18T08:46:47.638Z,99076.84
2022-11-18T08:49:17.628Z,99089.06
2022-11-18T08:51:49.808Z,99093.97
2022-11-18T08:54:19.240Z,99090.22
2022-11-18T08:56:50.643Z,99098.50
2022-11-18T08:59:20.662Z,99095.94
2022-11-18T09:01:50.208Z,99105.03
2022-11-18T09:04:19.659Z,99106.41
2022-11-18T09:06:51.738Z,99104.78
2022-11-18T09:09:21.419Z,99109.47
2022-11-18T09:11:51.213Z,99104.84
2022-11-18T09:17:10.106Z,99114.06
2022-11-18T09:19:47.126Z,99124.31
2022-11-18T09:22:19.911Z,99115.41
2022-11-18T09:24:49.352Z,99116.03
2022-11-18T09:27:18.818Z,99112.41
2022-11-18T09:29:48.224Z,99123.72
2022-11-18T09:32:17.682Z,99119.41
2022-11-18T09:34:47.126Z,99123.91
2022-11-18T09:37:19.219Z,99126.00
2022-11-18T09:39:48.661Z,99135.22
2022-11-18T09:42:27.440Z,99137.25
2022-11-18T09:45:08.579Z,99133.00
2022-11-18T09:47:41.404Z,99144.53
2022-11-18T09:50:41.754Z,99147.44
2022-11-18T09:53:11.801Z,99143.91
2022-11-18T09:55:41.775Z,99152.38
2022-11-18T09:58:15.975Z,99147.66
2022-11-18T10:00:46.720Z,99152.38
2022-11-18T10:03:18.715Z,99150.28
2022-11-18T10:05:49.898Z,99152.03
2022-11-18T10:08:24.933Z,99157.44
2022-11-18T10:11:00.584Z,99161.94
2022-11-18T10:13:35.407Z,99166.06
2022-11-18T10:16:08.932Z,99172.88
2022-11-18T10:21:31.789Z,99180.56
2022-11-18T10:24:05.435Z,99181.16
2022-11-18T10:26:38.601Z,99182.78
2022-11-18T10:29:10.168Z,99192.66
2022-11-18T10:31:40.236Z,99185.47
2022-11-18T10:34:11.823Z,99193.09
2022-11-18T10:36:41.227Z,99190.69
2022-11-18T10:39:17.238Z,99194.44
2022-11-18T10:41:49.317Z,99184.34
2022-11-18T10:44:41.502Z,99183.06
2022-11-18T10:47:26.259Z,99181.03
2022-11-18T10:49:56.479Z,99189.13
2022-11-18T10:52:26.044Z,99187.44
2022-11-18T10:55:23.728Z,99181.44
2022-11-18T10:58:01.255Z,99179.47
2022-11-18T11:00:47.496Z,99180.72
2022-11-18T11:03:35.679Z,99182.22
2022-11-18T11:06:25.649Z,99173.88
2022-11-18T11:08:56.276Z,99177.59
2022-11-18T11:11:30.116Z,99178.47
2022-11-18T11:14:04.734Z,99176.75
2022-11-18T11:16:41.828Z,99185.25
2022-11-18T11:19:12.504Z,99178.50
2022-11-18T11:21:41.975Z,99177.22
2022-11-18T11:24:15.040Z,99187.28
2022-11-18T11:30:06.020Z,99181.25
2022-11-18T11:32:44.449Z,99188.34
2022-11-18T11:35:16.395Z,99191.00
2022-11-18T11:37:53.740Z,99192.91
2022-11-18T11:40:26.623Z,99195.88
2022-11-18T11:43:10.776Z,99201.72
2022-11-18T11:45:43.769Z,99189.47
2022-11-18T11:48:21.944Z,99191.97
2022-11-18T11:51:03.877Z,99189.75
2022-11-18T11:53:46.363Z,99195.16
2022-11-18T11:56:22.400Z,99192.78
2022-11-18T11:59:13.574Z,99195.72
2022-11-18T12:01:49.555Z,99197.78
2022-11-18T12:04:26.652Z,99199.44
2022-11-18T12:06:56.474Z,99204.16
2022-11-18T12:09:31.526Z,99198.47
2022-11-18T12:12:03.654Z,99201.03
2022-11-18T12:14:40.039Z,99204.94
2022-11-18T12:17:12.036Z,99201.94
2022-11-18T12:19:41.600Z,99205.84
2022-11-18T12:22:11.016Z,99216.22
2022-11-18T12:24:40.706Z,99210.81
2022-11-18T12:27:15.414Z,99209.59
2022-11-18T12:29:59.147Z,99216.81
2022-11-18T12:32:42.501Z,99217.88
2022-11-18T12:35:28.437Z,99211.78
2022-11-18T12:38:02.356Z,99217.97
2022-11-18T12:40:48.829Z,99221.50
2022-11-18T12:43:47.691Z,99222.66
2022-11-18T12:46:47.234Z,99218.59
2022-11-18T12:49:52.804Z,99227.50
2022-11-18T12:52:52.692Z,99223.22
2022-11-18T12:55:35.329Z,99226.41
2022-11-18T12:58:04.819Z,99232.22
2022-11-18T13:00:52.794Z,99231.47
2022-11-18T13:03:28.796Z,99229.59
2022-11-18T13:06:07.468Z,99231.56
2022-11-18T13:08:39.494Z,99229.09
2022-11-18T13:11:25.256Z,99234.97
2022-11-18T13:14:15.581Z,99244.31
2022-11-18T13:16:58.692Z,99229.34
2022-11-18T13:19:28.208Z,99241.56
2022-11-18T13:22:10.308Z,99245.63
2022-11-18T13:24:46.804Z,99251.66
2022-11-18T13:27:26.024Z,99250.03
2022-11-18T13:29:58.296Z,99248.47
2022-11-18T13:32:28.154Z,99248.88
2022-11-18T13:34:58.828Z,99248.59
2022-11-18T13:37:29.237Z,99244.75
2022-11-18T13:40:01.273Z,99243.16
2022-11-18T13:42:31.280Z,99243.44
2022-11-18T13:45:01.739Z,99242.84
2022-11-18T13:47:33.047Z,99247.72
2022-11-18T13:50:06.333Z,99251.25
2022-11-18T13:52:39.613Z,99245.16
2022-11-18T13:55:19.864Z,99244.19
2022-11-18T13:57:50.599Z,99250.47
2022-11-18T14:00:24.504Z,99248.75
2022-11-18T14:02:57.976Z,99251.03
2022-11-18T14:05:27.515Z,99253.69
2022-11-18T14:08:07.036Z,99255.28
2022-11-18T14:10:43.496Z,99259.72
2022-11-18T14:13:20.406Z,99256.13
2022-11-18T14:15:50.073Z,99265.47
2022-11-18T14:18:30.506Z,99261.75
2022-11-18T14:21:00.087Z,99256.66
2022-11-18T14:23:30.756Z,99267.53
2022-11-18T14:26:03.763Z,99270.31
2022-11-18T14:28:34.056Z,99275.78
2022-11-18T14:31:05.432Z,99270.38
2022-11-18T14:33:37.011Z,99272.22
2022-11-18T14:36:13.058Z,99274.25
2022-11-18T14:41:51.708Z,99270.47
2022-11-18T14:44:21.676Z,99280.09
2022-11-18T14:46:53.447Z,99286.69
2022-11-18T14:49:24.417Z,99295.22
2022-11-18T14:51:54.685Z,99283.31
2022-11-18T14:54:27.673Z,99284.00
2022-11-18T14:57:01.037Z,99297.56
2022-11-18T14:59:30.498Z,99292.41
2022-11-18T15:02:00.177Z,99295.56
2022-11-18T15:04:29.748Z,99297.16
2022-11-18T15:06:59.292Z,99304.00
2022-11-18T15:09:28.774Z,99298.03
2022-11-18T15:12:00.897Z,99300.69
2022-11-18T15:14:30.540Z,99306.56
2022-11-18T15:17:01.099Z,99302.31
2022-11-18T15:19:32.183Z,99307.84
2022-11-18T15:22:01.796Z,99313.16
2022-11-18T15:24:31.603Z,99305.66
2022-11-18T15:27:05.642Z,99305.91
2022-11-18T15:29:35.128Z,99313.69
2022-11-18T15:32:05.337Z,99313.16
2022-11-18T15:34:34.834Z,99314.09
2022-11-18T15:37:04.844Z,99315.72
2022-11-18T15:39:34.272Z,99322.66
2022-11-18T15:42:06.369Z,99324.50
2022-11-18T15:44:35.891Z,99316.13
2022-11-18T15:47:05.438Z,99313.69
2022-11-18T15:49:34.963Z,99318.09
2022-11-18T15:52:04.495Z,99320.19
2022-11-18T15:54:33.980Z,99319.03
2022-11-18T15:57:06.052Z,99313.16
2022-11-18T15:59:35.527Z,99327.72
2022-11-18T16:02:05.295Z,99324.94
2022-11-18T16:04:34.766Z,99319.31
2022-11-18T16:07:04.295Z,99318.03
2022-11-18T16:09:46.033Z,99321.53
2022-11-18T16:12:30.570Z,99329.59
2022-11-18T16:15:12.312Z,99327.56
2022-11-18T16:17:41.946Z,99324.22
2022-11-18T16:20:12.303Z,99326.63
2022-11-18T16:22:41.801Z,99339.22
2022-11-18T16:25:12.083Z,99334.38
2022-11-18T16:27:44.190Z,99334.13
2022-11-18T16:30:35.147Z,99344.06
2022-11-18T16:33:04.683Z,99342.09
2022-11-18T16:35:34.159Z,99344.84
2022-11-18T16:38:03.644Z,99338.50
2022-11-18T16:40:33.122Z,99348.22
2022-11-18T16:43:05.198Z,99347.06
2022-11-18T16:45:34.885Z,99354.22
2022-11-18T16:48:04.576Z,99353.72
2022-11-18T16:50:34.035Z,99359.94
2022-11-18T16:53:03.512Z,99365.81
2022-11-18T16:55:32.966Z,99371.47
2022-11-18T16:58:05.065Z,99374.91
2022-11-18T17:01:09.323Z,99385.53
2022-11-18T17:03:23.991Z,99391.16
2022-11-18T17:05:53.448Z,99387.94
2022-11-18T17:08:22.965Z,99395.66
2022-11-18T17:10:52.473Z,99398.31
2022-11-18T17:13:24.565Z,99400.03
2022-11-18T17:15:54.027Z,99397.94
2022-11-18T17:18:23.498Z,99404.28
2022-11-18T17:20:52.931Z,99398.78
2022-11-18T17:23:22.409Z,99406.50
2022-11-18T17:25:51.848Z,99406.03
2022-11-18T17:28:23.904Z,99405.91
2022-11-18T17:30:53.468Z,99400.72
2022-11-18T17:33:22.979Z,99405.09
2022-11-18T17:36:01.503Z,99405.34
2022-11-18T17:38:31.176Z,99412.50
2022-11-18T17:41:00.763Z,99413.50
2022-11-18T17:43:32.917Z,99410.41
2022-11-18T17:46:02.868Z,99409.38
2022-11-18T17:48:32.955Z,99416.84
2022-11-18T17:51:09.048Z,99424.19
2022-11-18T17:53:43.182Z,99421.88
2022-11-18T17:56:12.989Z,99416.44
2022-11-18T17:58:45.051Z,99428.56
2022-11-18T18:01:15.514Z,99426.13
2022-11-18T18:03:45.151Z,99427.09
2022-11-18T18:06:14.811Z,99430.16
2022-11-18T18:08:44.528Z,99428.16
2022-11-18T18:11:14.804Z,99432.81
2022-11-18T18:13:59.427Z,99432.88
2022-11-18T18:16:28.910Z,99430.69
2022-11-18T18:18:58.659Z,99430.25
2022-11-18T18:21:28.135Z,99433.94
2022-11-18T18:23:57.616Z,99431.72
2022-11-18T18:26:31.436Z,99437.31
2022-11-18T18:29:03.883Z,99436.97
2022-11-18T18:31:36.453Z,99430.53
2022-11-18T18:34:06.128Z,99437.53
2022-11-18T18:36:35.702Z,99439.16
2022-11-18T18:39:05.181Z,99433.69
2022-11-18T18:41:34.736Z,99436.75
2022-11-18T18:44:07.075Z,99429.81
2022-11-18T18:46:34.163Z,99441.75
2022-11-18T18:49:05.493Z,99439.28
2022-11-18T18:51:37.584Z,99444.00
2022-11-18T18:54:07.476Z,99436.19
2022-11-18T18:56:38.495Z,99436.06
2022-11-18T18:59:10.736Z,99436.75
2022-11-18T19:01:40.420Z,99438.38
2022-11-18T19:04:10.197Z,99441.03
2022-11-18T19:09:29.452Z,99444.44
2022-11-18T19:12:11.466Z,99441.75
2022-11-18T19:14:43.640Z,99434.69
2022-11-18T19:17:13.248Z,99439.19
2022-11-18T19:19:55.524Z,99440.81
2022-11-18T19:22:24.993Z,99446.22
2022-11-18T19:24:54.917Z,99450.22
2022-11-18T19:27:24.713Z,99442.44
2022-11-18T19:29:56.783Z,99453.47
2022-11-18T19:32:26.243Z,99459.81
2022-11-18T19:34:55.734Z,99457.84
2022-11-18T19:37:25.168Z,99461.16
2022-11-18T19:39:54.976Z,99461.72
2022-11-18T19:42:24.454Z,99465.41
2022-11-18T19:44:56.575Z,99468.00
2022-11-18T19:47:26.058Z,99466.09
2022-11-18T19:49:55.582Z,99467.84
2022-11-18T19:52:25.031Z,99469.34
2022-11-18T19:54:54.617Z,99474.50
2022-11-18T19:57:24.071Z,99481.47
2022-11-18T19:59:56.104Z,99487.59
2022-11-18T20:02:25.552Z,99486.69
2022-11-18T20:05:07.530Z,99491.41
2022-11-18T20:07:37.265Z,99489.03
2022-11-18T20:10:09.315Z,99502.72
2022-11-18T20:12:38.911Z,99501.03
2022-11-18T20:15:12.845Z,99510.16
2022-11-18T20:17:42.276Z,99509.31
2022-11-18T20:20:13.058Z,99503.94
2022-11-18T20:22:42.550Z,99511.66
2022-11-18T20:25:13.716Z,99507.03
2022-11-18T20:27:42.918Z,99508.38
2022-11-18T20:30:17.552Z,99495.09
2022-11-18T20:32:47.368Z,99497.88
2022-11-18T20:35:17.047Z,99496.50
2022-11-18T20:37:46.530Z,99503.38
2022-11-18T20:40:16.004Z,99508.69
2022-11-18T20:42:57.976Z,99515.22
2022-11-18T20:45:30.126Z,99512.22
2022-11-18T20:47:59.691Z,99512.78
2022-11-18T20:50:29.277Z,99507.94
2022-11-18T20:52:58.867Z,99514.63
2022-11-18T20:55:28.332Z,99510.97
2022-11-18T20:57:57.821Z,99509.72
2022-11-18T21:00:29.888Z,99512.72
2022-11-18T21:02:59.448Z,99522.31
2022-11-18T21:05:31.063Z,99522.28
2022-11-18T21:08:00.536Z,99516.09
2022-11-18T21:10:30.046Z,99517.13
2022-11-18T21:13:11.958Z,99522.44
2022-11-18T21:15:44.016Z,99525.28
2022-11-18T21:18:13.495Z,99528.88
2022-11-18T21:20:55.446Z,99532.53
2022-11-18T21:23:24.916Z,99530.34
2022-11-18T21:25:54.454Z,99543.78
2022-11-18T21:28:23.936Z,99529.19
2022-11-18T21:30:56.016Z,99536.06
2022-11-18T21:33:25.736Z,99536.13
2022-11-18T21:35:55.211Z,99530.53
2022-11-18T21:38:24.689Z,99534.00
2022-11-18T21:40:54.170Z,99536.06
2022-11-18T21:43:50.253Z,99536.59
2022-11-18T21:46:16.315Z,99532.53
2022-11-18T21:48:45.854Z,99534.00
2022-11-18T21:51:16.059Z,99535.81
2022-11-18T21:53:45.903Z,99539.88
2022-11-18T21:56:16.433Z,99539.50
2022-11-18T21:58:45.946Z,99537.88
2022-11-18T22:01:18.944Z,99536.69
2022-11-18T22:03:55.048Z,99537.94
2022-11-18T22:06:25.422Z,99535.75
2022-11-18T22:08:54.909Z,99540.88
2022-11-18T22:11:25.717Z,99533.97
2022-11-18T22:13:55.403Z,99536.84
2022-11-18T22:16:27.675Z,99536.22
2022-11-18T22:19:03.670Z,99540.13
2022-11-18T22:21:36.234Z,99541.81
2022-11-18T22:24:05.776Z,99547.09
2022-11-18T22:26:35.424Z,99549.72
2022-11-18T22:29:04.868Z,99553.78
2022-11-18T22:31:36.952Z,99549.28
2022-11-18T22:34:06.544Z,99537.72
2022-11-18T22:36:36.068Z,99540.13
2022-11-18T22:39:05.686Z,99544.59
2022-11-18T22:41:50.028Z,99551.50
2022-11-18T22:44:19.506Z,99546.59
2022-11-18T22:46:51.608Z,99543.75
2022-11-18T22:49:22.383Z,99541.31
2022-11-18T22:51:52.061Z,99538.09
2022-11-18T22:57:10.971Z,99555.75
2022-11-18T22:59:40.464Z,99553.13
2022-11-18T23:02:12.535Z,99553.31
2022-11-18T23:04:42.038Z,99552.69
2022-11-18T23:07:11.555Z,99562.03
2022-11-18T23:09:41.053Z,99561.59
2022-11-18T23:12:23.016Z,99560.72
2022-11-18T23:14:52.443Z,99566.16
2022-11-18T23:17:24.528Z,99560.31
2022-11-18T23:19:53.991Z,99566.16
2022-11-18T23:22:23.501Z,99562.13
2022-11-18T23:24:53.199Z,99563.09
2022-11-18T23:27:22.673Z,99563.75
2022-11-18T23:29:52.181Z,99560.09
2022-11-18T23:32:24.239Z,99559.47
2022-11-18T23:34:53.732Z,99566.63
2022-11-18T23:37:23.200Z,99560.50
2022-11-18T23:39:52.643Z,99560.72
2022-11-18T23:42:22.164Z,99568.28
2022-11-18T23:44:52.861Z,99562.16
2022-11-18T23:47:24.963Z,99558.94
2022-11-18T23:49:54.396Z,99564.59
2022-11-18T23:52:23.924Z,99557.06
2022-11-18T23:54:54.563Z,99559.94
2022-11-18T23:57:24.132Z,99560.34
2022-11-18T23:59:53.593Z,99560.59
